Time;durP1;ratioP1;P1;durP2;ratioP2;P2;SDS_P1;SDS_P2;PMS_P1;PMS_P2;Temp;Humidity;BMP_temperature;BMP_pressure;BME280_temperature;BME280_humidity;BME280_pressure;Samples;Min_cycle;Max_cycle;Signal;HPM_P1;HPM_P2
2022/07/02 00:01:51;;;;;;;17.75;5.72;;;;;;;14.50;47.79;100359.63;4976181;28;20050;-66
2022/07/02 00:04:21;;;;;;;20.77;5.77;;;;;;;14.45;48.22;100360.50;4953001;28;20534;-67
2022/07/02 00:06:48;;;;;;;18.10;5.50;;;;;;;14.43;48.13;100362.72;4979820;28;20053;-68
2022/07/02 00:09:14;;;;;;;16.48;5.43;;;;;;;14.41;48.29;100360.25;4981007;28;20617;-66
2022/07/02 00:11:42;;;;;;;19.00;5.68;;;;;;;14.30;48.50;100347.69;4977404;28;20489;-68
2022/07/02 00:14:08;;;;;;;32.15;5.68;;;;;;;14.42;48.34;100366.56;4977530;28;20189;-68
2022/07/02 00:16:34;;;;;;;16.30;5.67;;;;;;;14.47;48.16;100361.03;4972440;28;20101;-68
2022/07/02 00:19:01;;;;;;;34.72;5.97;;;;;;;14.48;48.24;100365.41;4983518;28;20116;-68
2022/07/02 00:21:27;;;;;;;23.05;5.95;;;;;;;14.39;48.26;100356.16;4991492;28;21590;-67
2022/07/02 00:23:53;;;;;;;27.90;5.65;;;;;;;14.46;48.46;100362.13;4975370;28;20050;-69
2022/07/02 00:26:26;;;;;;;28.95;6.00;;;;;;;14.49;48.44;100364.31;4976888;28;20121;-68
2022/07/02 00:29:02;;;;;;;19.65;5.82;;;;;;;14.46;48.46;100364.88;4977125;28;20053;-66
2022/07/02 00:31:28;;;;;;;25.63;5.78;;;;;;;14.33;48.57;100355.38;4980501;28;20661;-68
2022/07/02 00:33:56;;;;;;;25.95;5.20;;;;;;;14.38;48.75;100377.31;4978930;28;20061;-67
2022/07/02 00:36:25;;;;;;;18.58;4.93;;;;;;;14.34;48.86;100379.00;4973317;28;20406;-65
2022/07/02 00:38:51;;;;;;;21.48;4.88;;;;;;;14.32;48.77;100387.53;4978181;28;20598;-67
2022/07/02 00:41:18;;;;;;;21.85;6.18;;;;;;;14.30;48.98;100383.44;4980895;28;20552;-68
2022/07/02 00:43:45;;;;;;;22.67;5.53;;;;;;;14.22;49.03;100384.88;4977218;28;20410;-67
2022/07/02 00:46:14;;;;;;;23.90;5.75;;;;;;;14.23;49.14;100378.28;4981890;28;20060;-67
2022/07/02 00:48:41;;;;;;;31.48;9.95;;;;;;;14.15;49.35;100379.69;4980511;28;20097;-66
2022/07/02 00:51:07;;;;;;;;;;;;;;;14.17;49.66;100388.47;4979416;28;20050;-66
2022/07/02 00:53:33;;;;;;;30.35;7.05;;;;;;;14.17;49.53;100385.72;4978279;28;19925;-65
2022/07/02 00:55:59;;;;;;;21.92;5.72;;;;;;;14.14;49.67;100380.81;4973998;28;20049;-66
2022/07/02 00:58:28;;;;;;;20.42;5.53;;;;;;;14.16;49.90;100381.34;4980330;28;20054;-65
2022/07/02 01:00:54;;;;;;;29.77;6.07;;;;;;;14.26;49.70;100387.84;4979273;28;20061;-66
2022/07/02 01:03:23;;;;;;;32.30;6.07;;;;;;;14.20;49.70;100361.50;4979830;28;20058;-66
2022/07/02 01:05:51;;;;;;;77.50;6.95;;;;;;;14.35;49.56;100377.91;4979586;28;20054;-65
2022/07/02 01:11:04;;;;;;;;;;;;;;;14.38;49.72;100390.28;4981891;28;20086;-67
2022/07/02 01:13:32;;;;;;;33.00;5.57;;;;;;;14.37;49.63;100392.19;4979939;28;20341;-66
2022/07/02 01:15:57;;;;;;;;;;;;;;;14.37;49.86;100391.38;4973747;28;20053;-68
2022/07/02 01:18:25;;;;;;;32.60;5.47;;;;;;;14.30;50.04;100397.19;4958749;28;19926;-67
2022/07/02 01:20:51;;;;;;;;;;;;;;;14.32;50.33;100395.78;4979349;28;20058;-67
2022/07/02 01:23:18;;;;;;;21.90;5.57;;;;;;;14.35;50.20;100394.41;4979130;28;20459;-68
2022/07/02 01:25:49;;;;;;;28.05;6.20;;;;;;;14.34;50.38;100390.03;4967138;28;20045;-67
2022/07/02 01:28:15;;;;;;;15.55;4.63;;;;;;;14.38;50.47;100395.78;4964370;28;20047;-68
2022/07/02 01:30:41;;;;;;;22.92;5.55;;;;;;;14.40;50.46;100393.56;4974206;28;20054;-67
2022/07/02 01:33:07;;;;;;;30.80;6.00;;;;;;;14.39;50.60;100398.22;4983262;28;20430;-67
2022/07/02 01:35:33;;;;;;;24.20;5.90;;;;;;;14.41;50.75;100403.44;4982523;28;20074;-68
2022/07/02 01:37:59;;;;;;;20.38;5.85;;;;;;;14.41;50.60;100396.00;4979220;28;20523;-67
2022/07/02 01:40:27;;;;;;;22.00;5.68;;;;;;;14.46;50.77;100400.66;4982472;28;20054;-67
2022/07/02 01:42:53;;;;;;;24.77;6.05;;;;;;;14.51;50.63;100408.84;4982926;28;20057;-67
2022/07/02 01:45:19;;;;;;;26.50;5.57;;;;;;;14.57;50.52;100409.66;4980473;28;20077;-67
2022/07/02 01:47:45;;;;;;;24.92;5.32;;;;;;;14.57;50.48;100410.47;4980417;28;20062;-66
2022/07/02 01:50:12;;;;;;;19.73;5.57;;;;;;;14.58;50.50;100397.53;4981671;28;20530;-68
2022/07/02 01:52:38;;;;;;;18.27;4.72;;;;;;;14.69;50.12;100409.31;4982895;28;20069;-66
2022/07/02 01:55:05;;;;;;;19.60;5.53;;;;;;;14.72;49.78;100419.75;4982584;28;20042;-68
2022/07/02 01:57:35;;;;;;;15.77;4.75;;;;;;;14.74;49.77;100418.34;4964284;28;20057;-67
2022/07/02 02:00:03;;;;;;;24.20;5.38;;;;;;;14.81;49.58;100415.25;4976632;28;20340;-69
2022/07/02 02:02:31;;;;;;;24.25;5.38;;;;;;;14.85;49.40;100421.03;4984933;28;20097;-67
2022/07/02 02:04:57;;;;;;;25.05;5.03;;;;;;;14.91;49.30;100424.56;4982980;28;20050;-68
2022/07/02 02:07:23;;;;;;;15.68;5.30;;;;;;;14.94;48.96;100424.81;4983529;28;20554;-68
2022/07/02 02:09:49;;;;;;;22.65;6.05;;;;;;;14.99;48.64;100422.00;4976399;28;20039;-69
2022/07/02 02:12:15;;;;;;;23.52;5.15;;;;;;;14.85;48.80;100399.84;4980640;28;20056;-65
2022/07/02 02:14:43;;;;;;;32.25;5.07;;;;;;;14.89;48.18;100400.88;4983418;28;20054;-68
2022/07/02 02:17:09;;;;;;;12.85;4.35;;;;;;;15.07;48.12;100423.31;4983229;28;20528;-67
2022/07/02 02:19:35;;;;;;;22.40;4.47;;;;;;;15.09;48.15;100423.03;4990999;28;20043;-68
2022/07/02 02:22:01;;;;;;;18.35;4.78;;;;;;;15.14;48.05;100422.97;4982361;28;20121;-66
2022/07/02 02:24:27;;;;;;;20.83;4.80;;;;;;;15.19;48.11;100420.16;4982738;28;20100;-68
2022/07/02 02:26:53;;;;;;;23.55;4.97;;;;;;;15.24;47.90;100435.81;4981785;28;20148;-67
2022/07/02 02:29:19;;;;;;;19.48;5.13;;;;;;;15.24;47.82;100433.88;4982091;28;20474;-68
2022/07/02 02:31:46;;;;;;;20.38;6.20;;;;;;;15.27;47.84;100427.78;4981641;28;20148;-67
2022/07/02 02:34:12;;;;;;;;;;;;;;;15.31;47.66;100434.34;4984148;28;20140;-68
2022/07/02 02:36:38;;;;;;;19.83;5.00;;;;;;;15.37;48.03;100434.28;4978349;28;20032;-68
2022/07/02 02:39:04;;;;;;;25.13;5.15;;;;;;;15.45;47.94;100430.91;4981796;28;20097;-68
2022/07/02 02:41:30;;;;;;;26.67;5.60;;;;;;;15.55;47.80;100429.97;4981683;28;20057;-67
2022/07/02 02:43:56;;;;;;;17.95;5.53;;;;;;;15.64;47.58;100432.91;4981353;28;20055;-67
2022/07/02 02:46:22;;;;;;;21.85;5.25;;;;;;;15.68;47.45;100434.78;4982421;28;20266;-65
2022/07/02 02:48:49;;;;;;;17.60;5.10;;;;;;;15.68;47.17;100433.94;4984082;28;20060;-68
2022/07/02 02:51:15;;;;;;;;;;;;;;;15.72;47.46;100435.81;4976545;28;20061;-66
2022/07/02 02:53:44;;;;;;;20.05;5.13;;;;;;;15.52;46.80;100405.75;4981109;28;19925;-68
2022/07/02 02:56:11;;;;;;;24.13;4.88;;;;;;;15.78;46.57;100444.06;4981427;28;20046;-68
2022/07/02 02:58:38;;;;;;;18.60;5.30;;;;;;;15.81;46.39;100441.50;4998090;28;20070;-67
2022/07/02 03:01:04;;;;;;;17.40;4.78;;;;;;;15.87;45.98;100442.28;4984514;28;20057;-67
2022/07/02 03:03:30;;;;;;;18.17;4.93;;;;;;;15.96;45.83;100429.50;4976032;28;20404;-67
2022/07/02 03:05:58;;;;;;;22.13;4.20;;;;;;;16.00;45.68;100430.56;4978586;28;20058;-69
2022/07/02 03:08:24;;;;;;;20.13;4.82;;;;;;;16.08;45.43;100429.06;4982354;28;20043;-67
2022/07/02 03:10:50;;;;;;;15.32;4.68;;;;;;;16.12;45.20;100427.34;4980023;28;20046;-69
2022/07/02 03:13:16;;;;;;;12.10;4.13;;;;;;;16.15;45.33;100424.00;4981714;28;20951;-68
2022/07/02 03:15:42;;;;;;;13.63;3.97;;;;;;;16.20;44.48;100420.34;4985293;28;20053;-68
2022/07/02 03:18:08;;;;;;;11.73;4.10;;;;;;;16.24;43.99;100415.91;4979171;28;20089;-68
2022/07/02 03:20:35;;;;;;;27.90;4.47;;;;;;;16.27;44.09;100417.22;4978819;28;20061;-68
2022/07/02 03:23:02;;;;;;;12.35;3.90;;;;;;;16.30;44.04;100420.22;4977331;28;20050;-67
2022/07/02 03:25:28;;;;;;;;;;;;;;;16.37;43.62;100425.38;4976501;28;20050;-67
2022/07/02 03:27:57;;;;;;;15.68;4.22;;;;;;;16.43;43.36;100426.91;4980977;28;20221;-66
2022/07/02 03:30:23;;;;;;;20.02;3.80;;;;;;;16.50;42.93;100429.28;4979319;28;20089;-69
2022/07/02 03:32:49;;;;;;;17.13;4.25;;;;;;;16.57;42.95;100426.16;4980654;28;20054;-68
2022/07/02 03:35:15;;;;;;;20.90;4.93;;;;;;;16.62;42.64;100428.84;4973262;28;20049;-68
2022/07/02 03:37:41;;;;;;;31.77;4.78;;;;;;;16.68;42.63;100429.56;4980593;28;20050;-66
2022/07/02 03:40:09;;;;;;;18.75;4.35;;;;;;;16.73;42.70;100432.28;4980843;28;20050;-66
2022/07/02 03:42:36;;;;;;;20.38;4.43;;;;;;;16.77;42.19;100432.47;4967575;28;20047;-67
2022/07/02 03:45:03;;;;;;;22.50;4.78;;;;;;;16.82;42.17;100433.22;4976277;28;20050;-66
2022/07/02 03:47:30;;;;;;;26.58;4.75;;;;;;;16.88;42.09;100433.94;4994902;28;20056;-67
2022/07/02 03:49:56;;;;;;;17.60;4.53;;;;;;;16.94;41.74;100440.22;4981580;28;20050;-67
2022/07/02 03:52:22;;;;;;;18.67;4.90;;;;;;;17.01;41.79;100448.94;4980799;28;20422;-68
2022/07/02 03:54:48;;;;;;;16.88;4.30;;;;;;;17.07;41.42;100446.91;4977214;28;20050;-66
2022/07/02 03:57:15;;;;;;;26.48;4.72;;;;;;;17.13;40.96;100446.53;4980074;28;20054;-67
2022/07/02 03:59:41;;;;;;;;;;;;;;;17.19;41.10;100452.78;4977763;28;20058;-67
2022/07/02 04:02:07;;;;;;;17.35;4.43;;;;;;;17.26;40.85;100441.34;4977700;28;19926;-66
2022/07/02 04:04:33;;;;;;;20.17;4.78;;;;;;;17.32;40.23;100445.63;4983041;28;20137;-66
2022/07/02 04:06:59;;;;;;;15.68;4.15;;;;;;;17.35;39.87;100439.53;4979949;28;20425;-67
2022/07/02 04:09:25;;;;;;;11.95;4.35;;;;;;;17.39;40.00;100443.31;4978527;28;20054;-67
2022/07/02 04:11:51;;;;;;;16.60;4.55;;;;;;;17.41;40.00;100440.25;4975012;28;20051;-66
2022/07/02 04:14:18;;;;;;;17.95;5.00;;;;;;;17.54;39.93;100444.13;4975012;28;20405;-67
2022/07/02 04:16:44;;;;;;;14.02;4.22;;;;;;;17.61;39.63;100455.59;4973438;28;20113;-68
2022/07/02 04:19:10;;;;;;;15.55;4.22;;;;;;;17.64;39.39;100455.00;4978910;28;20061;-66
2022/07/02 04:21:36;;;;;;;11.02;4.10;;;;;;;17.69;39.34;100449.38;4980087;28;20058;-64
2022/07/02 04:24:03;;;;;;;23.13;4.45;;;;;;;17.46;39.09;100400.59;4977359;28;20058;-66
2022/07/02 04:26:29;;;;;;;16.55;4.45;;;;;;;17.76;38.96;100437.91;4979926;28;20297;-67
2022/07/02 04:28:55;;;;;;;16.33;4.53;;;;;;;17.80;38.62;100447.19;4973809;28;20097;-68
2022/07/02 04:31:22;;;;;;;10.75;4.50;;;;;;;17.86;38.58;100445.16;4980337;28;20062;-68
2022/07/02 04:33:48;;;;;;;;;;;;;;;17.88;38.56;100448.44;4975782;28;20073;-66
2022/07/02 04:36:17;;;;;;;11.48;4.15;;;;;;;17.95;38.24;100445.25;4979470;28;20397;-67
2022/07/02 04:38:43;;;;;;;12.93;4.22;;;;;;;18.00;38.22;100442.38;4976203;28;20186;-68
2022/07/02 04:41:09;;;;;;;16.63;3.97;;;;;;;18.04;38.30;100442.59;4981964;28;20534;-67
2022/07/02 04:43:35;;;;;;;13.95;3.75;;;;;;;18.04;38.17;100434.31;4977003;28;20820;-68
2022/07/02 04:46:01;;;;;;;10.65;3.83;;;;;;;18.09;38.16;100440.53;4980625;28;20545;-68
2022/07/02 04:48:29;;;;;;;12.25;3.88;;;;;;;18.07;37.86;100430.91;4976607;28;20045;-69
2022/07/02 04:50:55;;;;;;;14.00;3.90;;;;;;;18.09;37.46;100423.13;4979404;28;20046;-69
2022/07/02 04:53:21;;;;;;;11.48;3.58;;;;;;;18.05;37.63;100425.72;4975217;28;20126;-69
2022/07/02 04:55:47;;;;;;;10.82;3.45;;;;;;;18.06;37.60;100429.28;4992018;28;20047;-68
2022/07/02 04:58:13;;;;;;;11.15;3.95;;;;;;;18.09;37.45;100434.19;4979301;28;20053;-66
2022/07/02 05:00:39;;;;;;;15.90;4.03;;;;;;;18.02;37.32;100417.16;4964014;28;20046;-67
2022/07/02 05:03:05;;;;;;;14.93;3.47;;;;;;;18.08;36.92;100422.31;4977673;28;20140;-68
2022/07/02 05:05:33;;;;;;;11.15;3.67;;;;;;;18.10;37.19;100420.06;4970541;28;20043;-68
2022/07/02 05:07:58;;;;;;;;;;;;;;;18.11;37.01;100421.69;4972213;28;20232;-68
2022/07/02 05:10:24;;;;;;;15.05;4.10;;;;;;;18.11;37.10;100426.41;4976594;28;20028;-68
2022/07/02 05:12:51;;;;;;;10.38;3.35;;;;;;;18.15;37.20;100427.44;4972762;28;20576;-67
2022/07/02 05:15:17;;;;;;;16.38;3.97;;;;;;;18.19;36.94;100427.63;4969713;28;20038;-67
2022/07/02 05:17:43;;;;;;;10.30;3.45;;;;;;;18.25;36.73;100427.19;4976997;28;20126;-69
2022/07/02 05:20:10;;;;;;;10.60;3.35;;;;;;;18.28;36.80;100420.22;4979331;28;20136;-69
2022/07/02 05:22:37;;;;;;;13.52;3.85;;;;;;;18.47;36.48;100422.81;4961940;28;20450;-68
2022/07/02 05:25:03;;;;;;;;;;;;;;;18.57;36.48;100427.28;4969396;28;20107;-69
2022/07/02 05:27:29;;;;;;;29.63;3.70;;;;;;;18.67;35.62;100423.44;4969971;28;20316;-69
2022/07/02 05:29:55;;;;;;;7.97;3.22;;;;;;;18.70;36.07;100417.28;4976857;28;20050;-67
2022/07/02 05:32:21;;;;;;;19.63;3.40;;;;;;;18.74;35.97;100418.31;4975995;28;20053;-69
2022/07/02 05:34:47;;;;;;;13.43;3.40;;;;;;;18.72;35.41;100417.78;4971153;28;20054;-68
2022/07/02 05:37:13;;;;;;;8.85;3.63;;;;;;;18.73;35.15;100419.41;4979219;28;20287;-68
2022/07/02 05:39:41;;;;;;;10.20;3.42;;;;;;;18.75;34.86;100416.34;4976223;28;20082;-68
2022/07/02 05:42:07;;;;;;;10.82;3.20;;;;;;;18.73;34.88;100413.06;4980411;28;20137;-68
2022/07/02 05:44:33;;;;;;;8.70;3.90;;;;;;;18.68;35.16;100412.06;4979720;28;20058;-69
2022/07/02 05:46:59;;;;;;;11.43;3.80;;;;;;;18.70;35.28;100417.28;4979547;28;20050;-69
2022/07/02 05:49:25;;;;;;;13.20;3.55;;;;;;;18.77;35.34;100420.44;4958883;28;20113;-69
2022/07/02 05:51:51;;;;;;;12.32;4.03;;;;;;;18.80;35.49;100417.03;4979939;28;20478;-69
2022/07/02 05:54:17;;;;;;;9.55;3.35;;;;;;;18.84;35.50;100406.94;4980987;28;20046;-68
2022/07/02 05:56:45;;;;;;;11.88;4.10;;;;;;;18.88;35.31;100407.13;4977182;28;20077;-68
2022/07/02 05:59:11;;;;;;;15.55;3.60;;;;;;;18.91;35.12;100412.03;4978560;28;20552;-68
2022/07/02 06:01:37;;;;;;;9.65;3.47;;;;;;;18.96;35.51;100405.56;4980196;28;20039;-69
2022/07/02 06:04:12;;;;;;;12.95;3.66;;;;;;;19.06;35.24;100408.09;4935211;28;10000837;-69
2022/07/02 06:09:23;;;;;;;10.32;3.53;;;;;;;19.17;34.89;100414.19;4976678;28;20555;-68
2022/07/02 06:11:50;;;;;;;11.38;3.47;;;;;;;19.21;33.83;100406.84;4958823;28;20415;-68
2022/07/02 06:14:16;;;;;;;;;;;;;;;19.25;33.15;100407.03;4969994;28;20047;-69
2022/07/02 06:16:42;;;;;;;10.18;3.97;;;;;;;19.24;33.54;100408.19;4977508;28;19925;-68
2022/07/02 06:19:08;;;;;;;9.15;3.45;;;;;;;19.27;33.97;100411.13;4980015;28;20054;-68
2022/07/02 06:21:34;;;;;;;17.38;3.55;;;;;;;19.26;34.30;100394.81;4979546;28;20128;-67
2022/07/02 06:24:01;;;;;;;15.88;3.75;;;;;;;19.36;33.79;100405.63;4970024;28;20113;-69
2022/07/02 06:26:27;;;;;;;10.03;3.30;;;;;;;19.45;33.00;100390.97;4970980;28;20057;-68
2022/07/02 06:28:54;;;;;;;8.88;3.80;;;;;;;19.54;33.00;100394.59;4975889;28;20193;-69
2022/07/02 06:31:20;;;;;;;;;;;;;;;19.68;32.39;100388.94;4980298;28;20101;-66
2022/07/02 06:33:46;;;;;;;14.45;4.15;;;;;;;19.80;32.18;100391.06;4979939;28;20032;-67
2022/07/02 06:36:14;;;;;;;12.52;4.07;;;;;;;20.00;32.61;100386.09;4992411;28;20564;-66
2022/07/02 06:38:40;;;;;;;10.50;3.30;;;;;;;20.08;32.74;100371.41;4992603;28;20785;-67
2022/07/02 06:43:51;;;;;;;10.52;4.03;;;;;;;20.36;32.29;100390.50;4974192;28;20135;-67
2022/07/02 06:46:19;;;;;;;10.07;3.53;;;;;;;20.51;31.79;100387.25;4975602;28;20058;-68
2022/07/02 06:48:44;;;;;;;;;;;;;;;20.73;31.18;100384.59;4978141;28;20303;-68
2022/07/02 06:51:10;;;;;;;8.52;3.20;;;;;;;20.83;30.88;100392.59;4980714;28;19957;-68
2022/07/02 06:53:36;;;;;;;9.40;3.45;;;;;;;20.90;31.13;100386.53;4980822;28;20053;-67
2022/07/02 06:56:03;;;;;;;9.57;3.55;;;;;;;20.95;30.73;100381.63;4977037;28;20042;-67
2022/07/02 06:58:29;;;;;;;10.60;3.63;;;;;;;21.07;30.53;100383.72;4971541;28;20540;-67
2022/07/02 07:00:55;;;;;;;11.70;3.63;;;;;;;21.15;30.26;100382.06;4976811;28;20086;-68
2022/07/02 07:03:22;;;;;;;10.98;4.32;;;;;;;21.13;30.48;100378.78;4979311;28;20061;-67
2022/07/02 07:05:49;;;;;;;11.55;3.88;;;;;;;21.29;30.62;100386.56;4975800;28;20042;-67
2022/07/02 07:08:15;;;;;;;9.38;4.05;;;;;;;21.35;30.58;100383.28;4975230;28;20165;-68
2022/07/02 07:10:41;;;;;;;8.90;3.65;;;;;;;21.42;30.68;100377.19;4958391;28;20054;-68
2022/07/02 07:13:07;;;;;;;8.40;3.63;;;;;;;21.47;30.25;100378.97;4976368;28;20118;-68
2022/07/02 07:15:33;;;;;;;9.77;3.60;;;;;;;21.58;30.24;100380.22;4978285;28;20136;-68
2022/07/02 07:17:59;;;;;;;13.93;3.70;;;;;;;21.67;30.02;100378.22;4973167;28;20046;-68
2022/07/02 07:20:29;;;;;;;11.95;3.80;;;;;;;21.55;29.56;100341.97;4977504;28;20108;-68
2022/07/02 07:22:55;;;;;;;13.02;3.78;;;;;;;21.66;29.78;100359.91;4976955;28;20467;-68
2022/07/02 07:25:22;;;;;;;10.20;3.88;;;;;;;21.71;29.97;100360.88;4975062;28;20074;-68
2022/07/02 07:27:49;;;;;;;12.25;3.90;;;;;;;21.96;29.46;100361.84;4977514;28;20050;-68
2022/07/02 07:30:15;;;;;;;10.23;3.60;;;;;;;22.08;28.86;100359.13;4975091;28;20066;-67
2022/07/02 07:32:42;;;;;;;15.07;3.60;;;;;;;22.16;29.08;100354.63;4957643;28;20832;-68
2022/07/02 07:35:09;;;;;;;13.82;3.60;;;;;;;22.28;28.65;100356.69;4979681;28;20105;-69
2022/07/02 07:37:37;;;;;;;;;;;;;;;22.40;28.49;100355.91;4981422;28;20058;-69
2022/07/02 07:40:04;;;;;;;11.65;3.30;;;;;;;22.47;28.95;100355.38;4979088;28;19925;-68
2022/07/02 07:42:30;;;;;;;12.40;3.83;;;;;;;22.57;28.43;100359.72;4979259;28;20133;-68
2022/07/02 07:44:57;;;;;;;10.73;3.45;;;;;;;22.69;28.04;100356.97;4980601;28;20189;-69
2022/07/02 07:47:23;;;;;;;15.18;3.55;;;;;;;22.77;28.03;100353.28;4997649;28;20564;-68
2022/07/02 07:49:49;;;;;;;18.57;3.63;;;;;;;22.82;27.93;100355.03;4981709;28;20050;-72
2022/07/02 07:52:16;;;;;;;13.00;3.73;;;;;;;22.92;27.72;100357.38;4976518;28;20297;-68
2022/07/02 07:54:44;;;;;;;13.20;3.28;;;;;;;23.00;27.80;100352.88;4961530;28;20055;-68
2022/07/02 07:57:10;;;;;;;12.95;3.80;;;;;;;23.32;27.31;100355.94;4979757;28;20046;-69
2022/07/02 07:59:36;;;;;;;9.30;3.63;;;;;;;23.64;26.67;100349.75;4981171;28;20042;-67
2022/07/02 08:02:02;;;;;;;9.63;3.65;;;;;;;23.74;25.96;100352.06;4977618;28;20506;-69
2022/07/02 08:04:29;;;;;;;12.70;3.25;;;;;;;23.70;25.79;100348.38;4980115;28;20062;-68
2022/07/02 08:06:55;;;;;;;;;;;;;;;23.76;25.73;100360.09;4983011;28;20157;-70
2022/07/02 08:09:23;;;;;;;9.30;3.77;;;;;;;23.90;25.62;100348.56;4981153;28;20020;-68
2022/07/02 08:11:50;;;;;;;;;;;;;;;24.06;25.43;100349.47;4975452;28;20066;-67
2022/07/02 08:14:16;;;;;;;13.85;3.75;;;;;;;24.12;25.34;100358.41;4980191;28;20143;-69
2022/07/02 08:16:43;;;;;;;9.18;3.53;;;;;;;24.17;25.19;100357.34;4976315;28;20078;-69
2022/07/02 08:19:09;;;;;;;12.15;4.00;;;;;;;24.52;24.69;100345.56;4984374;28;20050;-68
2022/07/02 08:21:36;;;;;;;11.13;3.47;;;;;;;24.76;24.13;100341.06;4977094;28;20058;-69
2022/07/02 08:24:02;;;;;;;14.43;3.90;;;;;;;24.76;24.18;100346.66;4971482;28;20152;-68
2022/07/02 08:26:29;;;;;;;7.78;3.20;;;;;;;25.01;23.78;100341.72;4980335;28;20047;-68
2022/07/02 08:28:56;;;;;;;13.77;3.47;;;;;;;25.28;23.43;100332.75;4976949;28;20589;-68
2022/07/02 08:31:23;;;;;;;7.82;3.28;;;;;;;25.74;22.77;100330.25;4980611;28;20113;-67
2022/07/02 08:33:49;;;;;;;11.35;3.80;;;;;;;26.04;22.58;100331.69;4963949;28;20053;-70
2022/07/02 08:36:15;;;;;;;18.92;4.10;;;;;;;26.11;22.32;100331.84;4980979;28;20054;-68
2022/07/02 08:38:42;;;;;;;12.43;3.85;;;;;;;26.39;22.27;100324.41;4978314;28;20125;-67
2022/07/02 08:41:12;;;;;;;9.88;3.70;;;;;;;26.41;22.04;100325.66;4978722;28;20082;-68
2022/07/02 08:43:40;;;;;;;13.77;4.18;;;;;;;26.52;21.61;100316.63;4981624;28;20430;-68
2022/07/02 08:46:09;;;;;;;24.90;3.90;;;;;;;26.43;21.36;100320.50;4967382;28;20071;-68
2022/07/02 08:48:37;;;;;;;24.10;4.05;;;;;;;26.62;20.83;100318.81;4979398;28;20137;-68
2022/07/02 08:51:04;;;;;;;31.55;4.43;;;;;;;27.06;20.64;100314.81;4978551;28;20141;-67
2022/07/02 08:53:30;;;;;;;14.32;4.07;;;;;;;27.45;20.12;100313.78;4980454;28;20050;-68
2022/07/02 08:55:59;;;;;;;12.60;3.53;;;;;;;27.64;19.99;100301.66;4971936;28;20050;-67
2022/07/02 08:58:25;;;;;;;13.52;3.70;;;;;;;27.71;19.96;100320.63;4975030;28;20046;-68
2022/07/02 09:00:52;;;;;;;16.63;4.55;;;;;;;28.29;19.27;100316.56;4971910;28;20042;-69
2022/07/02 09:03:21;;;;;;;21.88;3.95;;;;;;;28.58;19.24;100304.81;4977891;28;20053;-68
2022/07/02 09:05:49;;;;;;;23.27;4.22;;;;;;;28.78;19.09;100313.84;4974467;28;20039;-67
2022/07/02 09:08:16;;;;;;;12.07;3.70;;;;;;;28.86;19.04;100315.56;4976675;28;20576;-68
2022/07/02 09:10:42;;;;;;;;;;;;;;;29.11;18.45;100305.69;4973881;28;20046;-69
2022/07/02 09:13:12;;;;;;;9.10;3.50;;;;;;;29.07;18.63;100288.00;4976683;28;19933;-69
2022/07/02 09:15:38;;;;;;;13.25;4.03;;;;;;;29.00;18.55;100295.16;4973955;28;20684;-69
2022/07/02 09:18:04;;;;;;;17.30;4.10;;;;;;;28.86;18.69;100300.66;4975892;28;20132;-69
2022/07/02 09:20:32;;;;;;;10.48;4.13;;;;;;;29.12;18.67;100291.25;4978979;28;20312;-69
2022/07/02 09:22:58;;;;;;;16.35;3.75;;;;;;;29.36;18.33;100291.00;4961953;28;20145;-69
2022/07/02 09:25:27;;;;;;;9.38;3.72;;;;;;;29.36;18.24;100288.19;4980419;28;20047;-68
2022/07/02 09:27:59;;;;;;;12.48;3.65;;;;;;;29.63;17.91;100285.97;4977426;28;20042;-69
2022/07/02 09:30:27;;;;;;;11.07;3.75;;;;;;;29.72;17.55;100283.56;4979144;28;20475;-69
2022/07/02 09:33:28;;;;;;;14.35;4.63;;;;;;;29.83;17.79;100278.00;4982767;28;20063;-68
2022/07/02 09:35:41;;;;;;;;;;;;;;;30.14;17.49;100270.09;4975603;28;20082;-69
2022/07/02 09:38:09;;;;;;;13.07;3.95;;;;;;;30.26;17.70;100268.91;4977618;28;19982;-70
2022/07/02 09:40:35;;;;;;;14.40;4.40;;;;;;;30.54;17.52;100264.53;4979165;28;20576;-68
2022/07/02 09:43:02;;;;;;;10.73;4.35;;;;;;;30.65;17.03;100258.09;4981600;28;20418;-68
2022/07/02 09:45:28;;;;;;;10.57;5.20;;;;;;;30.50;16.70;100257.28;4982422;28;20046;-69
2022/07/02 09:47:55;;;;;;;15.40;5.13;;;;;;;30.33;16.94;100253.19;4961748;28;20051;-68
2022/07/02 09:50:23;;;;;;;12.13;5.60;;;;;;;30.68;16.34;100238.38;4980790;28;20042;-68
2022/07/02 09:52:53;;;;;;;13.32;4.10;;;;;;;31.06;16.18;100239.94;4978223;28;20833;-68
2022/07/02 09:55:21;;;;;;;16.60;4.00;;;;;;;31.35;15.55;100246.38;4983304;28;20053;-68
2022/07/02 09:57:51;;;;;;;11.35;4.22;;;;;;;31.86;15.04;100245.44;4980261;28;20124;-66
2022/07/02 10:00:18;;;;;;;16.35;5.35;;;;;;;32.17;15.47;100245.66;4980345;28;20125;-69
2022/07/02 10:02:45;;;;;;;23.63;13.50;;;;;;;32.41;15.12;100240.25;4983678;28;20045;-68
2022/07/02 10:05:11;;;;;;;43.85;23.60;;;;;;;32.49;15.04;100233.34;4977234;28;20076;-67
2022/07/02 10:07:38;;;;;;;21.38;9.23;;;;;;;32.68;14.85;100215.78;4967391;28;20047;-69
2022/07/02 10:10:07;;;;;;;38.03;18.40;;;;;;;32.73;14.71;100223.03;4995775;28;20050;-67
2022/07/02 10:12:34;;;;;;;60.17;35.83;;;;;;;32.54;15.15;100211.03;4963334;28;20053;-69
2022/07/02 10:15:04;;;;;;;28.58;12.65;;;;;;;32.54;14.77;100218.75;4955279;28;20167;-67
2022/07/02 10:17:34;;;;;;;24.85;7.47;;;;;;;32.61;14.80;100218.66;4983421;28;20116;-67
2022/07/02 10:20:02;;;;;;;24.48;5.63;;;;;;;32.95;14.27;100212.34;4985102;28;20058;-67
2022/07/02 10:22:31;;;;;;;17.13;5.43;;;;;;;33.49;13.80;100198.84;4977397;28;20133;-69
2022/07/02 10:24:58;;;;;;;16.85;4.03;;;;;;;34.21;13.02;100205.56;4963438;28;20077;-67
2022/07/02 10:27:27;;;;;;;19.73;5.25;;;;;;;34.16;13.38;100198.34;4999636;28;20390;-68
2022/07/02 10:29:53;;;;;;;17.48;5.68;;;;;;;34.31;12.62;100198.13;4980628;28;20042;-68
2022/07/02 10:32:28;;;;;;;11.65;4.65;;;;;;;34.16;12.71;100186.19;4978259;28;20058;-68
2022/07/02 10:35:09;;;;;;;9.60;3.72;;;;;;;34.16;12.68;100183.34;4977584;28;20120;-66
2022/07/02 10:37:38;;;;;;;9.65;4.03;;;;;;;33.96;13.00;100186.06;4982721;28;20092;-69
2022/07/02 10:40:05;;;;;;;9.80;3.83;;;;;;;34.02;13.00;100175.88;4999502;28;20457;-67
2022/07/02 10:42:40;;;;;;;13.00;3.95;;;;;;;34.46;12.33;100175.97;4986248;28;20092;-67
2022/07/02 10:45:12;;;;;;;12.77;4.25;;;;;;;34.43;12.77;100176.84;4960072;28;20552;-67
2022/07/02 10:47:53;;;;;;;11.38;4.05;;;;;;;34.25;12.88;100172.28;4981652;28;20054;-68
2022/07/02 10:50:20;;;;;;;12.88;4.30;;;;;;;34.38;13.21;100180.97;4982207;28;20522;-68
2022/07/02 10:52:51;;;;;;;10.50;4.18;;;;;;;34.89;12.60;100169.56;4994842;28;20525;-67
2022/07/02 10:55:25;;;;;;;11.82;3.92;;;;;;;34.87;12.75;100168.38;4981610;28;20043;-68
2022/07/02 10:58:00;;;;;;;15.40;4.03;;;;;;;35.00;12.72;100168.56;4973510;28;20058;-67
2022/07/02 11:00:30;;;;;;;11.38;4.50;;;;;;;34.70;13.31;100162.59;4976142;28;20076;-68
2022/07/02 11:02:57;;;;;;;10.00;3.53;;;;;;;35.26;12.31;100163.19;4979824;28;20061;-69
2022/07/02 11:05:24;;;;;;;10.10;4.07;;;;;;;36.24;11.93;100149.69;4981482;28;20057;-69
2022/07/02 11:07:50;;;;;;;10.50;4.30;;;;;;;36.58;11.58;100157.78;4978833;28;20137;-67
2022/07/02 11:10:27;;;;;;;28.88;4.75;;;;;;;36.56;11.70;100154.59;4982349;28;20108;-67
2022/07/02 11:12:55;;;;;;;;;;;;;;;35.85;12.14;100155.84;4974297;28;20055;-67
2022/07/02 11:15:34;;;;;;;15.05;4.75;;;;;;;35.39;12.63;100158.44;4633004;28;10000082;-68
2022/07/02 11:18:03;;;;;;;18.15;4.65;;;;;;;35.73;12.65;100153.69;4977873;28;20050;-67
2022/07/02 11:20:30;;;;;;;12.70;4.07;;;;;;;35.99;12.67;100157.56;4634018;28;10000127;-67
2022/07/02 11:22:56;;;;;;;13.13;4.53;;;;;;;36.38;12.06;100155.00;4988265;28;20626;-68
2022/07/02 11:25:23;;;;;;;12.95;4.75;;;;;;;36.45;12.34;100156.88;4974146;28;20053;-68
2022/07/02 11:27:56;;;;;;;;;;;;;;;36.18;12.16;100152.25;4978180;28;20057;-68
2022/07/02 11:30:26;;;;;;;13.23;4.15;;;;;;;36.03;12.70;100141.22;4978375;28;19925;-67